Terminal Aerodrome Forecast
Issued by NWS Des Moines, IA

Home | Current Version | Previous Version | Text Only | Print | Product List | Glossary On
Versions: 1 2 3 4 5 6 7 8 9 10 11 12 13 14 15 16 17 18 19 20 21 22 23 24 25 26 27 28 29 30
000
FTUS43 KDMX 010520
TAFDSM
TAF
KDSM 010520Z 0106/0206 13010KT P6SM FEW030 SCT050 OVC080
     FM010700 13010KT 3SM -SHRA BR FEW009 SCT025 OVC040
     FM011200 14010KT 5SM BR VCTS SCT012CB BKN025
     FM011900 15008KT 6SM BR SCT020 BKN035=

USA.gov is the U.S. government's official web portal to all federal, state and local government web resources and services.